ETMN

Nordholz Naval Airbase Airport

Cuxhaven, Germany
METAR ETMN 191620Z 27008KT 9999 BKN038 BKN260 22/14 Q1016 BLU
Observed Flight Rules
Aug-19 @ 16:20 UTC (54 minutes ago) Visual Flight Rules
Wind Visibility Clouds
270° at 8 knots 10,000+ meters
  • Broken at 3,800' AGL
  • Broken at 26,000' AGL
Temperatures Readings
Current 22°C / 72°F
Dewpoint 14°C / 57°F
Humidity 61%
Altimeter 30" Hg
Pressure 1016 hPa
Elevation 31
METAR ETMN 191620Z 27008KT 9999 BKN038 BKN260 22/14 Q1016 BLU
Observed Flight Rules
Aug-19 @ 16:20 UTC
(54 minutes ago)
VFR
Wind Visibility
270° at 8 knots 10,000+ meters
Clouds
  • Broken at 3,800' AGL
  • Broken at 26,000' AGL
Temperature Dewpoint
22°C / 72°F 14°C / 57°F
Humidity Altimeter Pressure
61% 30" Hg 1016 hPa